Aérodrome :
LOGIN :

S'inscrire | Disclaimer

   EN    FR    IT 

 










Légende :    VFR   VFR Marginal   IFR   IFR Intensif   IFR Très Intensif
Visi : 
Plafond : 
>= 8 km
>= 3000ft
5 à 8 km
1000 à 3000 ft
1500m à 5 km
500 à 1000 ft
800 à 1500m
200 à 500 ft
< 800m
< 200 ft
Symboles :   Orages  Brouillard  Fortes neiges  Fortes précipitations  Vent > 20 kt
SIGMETs :   Divers  Orages  Givrage  Turbulence  Onde Orograph.  Cendres Volcan.






- Altitude de l'aérodrome : 1910 ft
- Code IATA : RDZ


LFCR - Rodez

DERNIER METAR :
  • 272130Z AUTO 30014KT 9999 OVC010 06/05 Q1018 NOSIG

METARs EXPIRÉS :
  • 272100Z AUTO 28014KT 9999 BKN015 BKN022 OVC029 07/05 Q1018 TEMPO BKN005
  • 272030Z AUTO 29015KT 9999 BKN015 OVC026 07/05 Q1017 TEMPO BKN005
  • 272000Z AUTO 30018KT 9999 BKN010 OVC014 07/05 Q1016 TEMPO BKN009TCU BECMG 27008KT
  • 271930Z AUTO 29019KT 9999 BKN010 OVC015 08/06 Q1015 TEMPO BKN009TCU BECMG 27008KT
  • 271900Z AUTO 28019G30KT 9999 BKN011 OVC037 08/07 Q1014 TEMPO BKN009TCU

TAF TAF LFCR
Valide du 27 à 18h jusqu'au 28 à 18h UTC


271700Z 2718/2818 26015G25KT 9999 BKN015
TEMPO 2718/2721 29020G30KT BKN009TCU
BECMG 2721/2723 27008KT
PROB30
TEMPO 2721/2724 -RADZ BKN005
BECMG 2802/2804 VRB03KT
PROB30
TEMPO 2804/2806 3000 BR OVC002
BECMG 2810/2812 BKN013
BECMG 2814/2816 13006KT BKN016
BECMG 2816/2818 CAVOK



MET'MAP, la Météo Aéronautique d'un coup d'oeil ! - Copyright ORBIFLY Décembre 2007 - Disclaimer

ORBIFLY MET'MAP TEAM :

Programmation & Développement : Alexandra Zaïnal
Sur une idée originale de : Baudouin d'Aumeries
Assistance à la programmation : Marc-Olivier Méhu
Soutien technique & logistique : Manuel Goepfert

Contact : metmap@orbifly.com




SOURCES & CREDITS :

   NOAA